createdAt,value
2018-10-12T00:00:15.748Z,22.60
2018-10-12T00:02:44.111Z,22.80
2018-10-12T00:05:12.844Z,23.00
2018-10-12T00:07:41.892Z,23.20
2018-10-12T00:10:10.564Z,23.20
2018-10-12T00:12:39.058Z,23.00
2018-10-12T00:15:07.211Z,23.20
2018-10-12T00:17:35.384Z,23.40
2018-10-12T00:20:03.547Z,23.70
2018-10-12T00:22:31.806Z,23.40
2018-10-12T00:25:00.015Z,23.40
2018-10-12T00:27:28.131Z,23.50
2018-10-12T00:29:56.276Z,23.60
2018-10-12T00:32:24.428Z,23.60
2018-10-12T00:34:52.577Z,23.20
2018-10-12T00:37:20.956Z,23.40
2018-10-12T00:39:49.727Z,23.20
2018-10-12T00:42:17.991Z,23.40
2018-10-12T00:44:46.127Z,23.40
2018-10-12T00:47:14.275Z,23.10
2018-10-12T00:49:42.436Z,23.10
2018-10-12T00:52:10.559Z,23.20
2018-10-12T00:54:38.752Z,23.20
2018-10-12T00:57:07.305Z,23.00
2018-10-12T00:59:35.745Z,22.70
2018-10-12T01:02:03.972Z,22.60
2018-10-12T01:04:32.135Z,22.70
2018-10-12T01:07:00.701Z,22.70
2018-10-12T01:09:28.825Z,22.70
2018-10-12T01:12:08.541Z,22.70
2018-10-12T01:14:36.690Z,22.90
2018-10-12T01:17:04.863Z,23.00
2018-10-12T01:19:32.993Z,23.00
2018-10-12T01:22:01.124Z,22.80
2018-10-12T01:24:29.277Z,22.90
2018-10-12T01:26:58.176Z,22.90
2018-10-12T01:29:26.317Z,22.90
2018-10-12T01:31:54.479Z,22.80
2018-10-12T01:34:22.590Z,22.90
2018-10-12T01:36:50.711Z,22.90
2018-10-12T01:39:18.978Z,22.90
2018-10-12T01:41:47.100Z,22.80
2018-10-12T01:44:15.264Z,22.40
2018-10-12T01:46:43.396Z,22.30
2018-10-12T01:49:11.576Z,22.30
2018-10-12T01:51:39.969Z,22.30
2018-10-12T01:54:08.223Z,22.20
2018-10-12T01:56:36.428Z,22.20
2018-10-12T01:59:04.556Z,22.20
2018-10-12T02:01:32.683Z,22.20
2018-10-12T02:04:00.845Z,22.30
2018-10-12T02:06:29.361Z,22.30
2018-10-12T02:08:57.868Z,22.40
2018-10-12T02:11:25.998Z,22.50
2018-10-12T02:13:54.121Z,22.70
2018-10-12T02:16:22.276Z,22.70
2018-10-12T02:18:50.408Z,22.60
2018-10-12T02:21:18.662Z,22.30
2018-10-12T02:23:46.855Z,22.40
2018-10-12T02:26:15.002Z,22.50
2018-10-12T02:28:43.171Z,22.30
2018-10-12T02:31:11.311Z,21.90
2018-10-12T02:33:39.548Z,21.90
2018-10-12T02:36:07.685Z,22.30
2018-10-12T02:38:35.823Z,22.20
2018-10-12T02:41:03.991Z,22.30
2018-10-12T02:43:32.100Z,22.20
2018-10-12T02:46:00.416Z,21.80
2018-10-12T02:48:28.562Z,22.10
2018-10-12T02:58:20.840Z,22.50
2018-10-12T03:00:49.320Z,22.30
2018-10-12T03:03:17.465Z,22.40
2018-10-12T03:05:46.068Z,22.50
2018-10-12T03:08:14.212Z,22.50
2018-10-12T03:10:42.350Z,22.50
2018-10-12T03:13:10.788Z,22.40
2018-10-12T03:20:34.814Z,22.30
2018-10-12T03:23:02.947Z,22.30
2018-10-12T03:25:31.375Z,22.40
2018-10-12T03:28:11.920Z,22.30
2018-10-12T03:30:40.392Z,22.30
2018-10-12T03:33:08.920Z,22.40
2018-10-12T03:35:37.072Z,22.30
2018-10-12T03:38:05.204Z,22.50
2018-10-12T03:40:33.349Z,22.70
2018-10-12T03:43:01.503Z,22.70
2018-10-12T03:45:29.634Z,22.50
2018-10-12T03:47:57.768Z,22.60
2018-10-12T03:50:25.900Z,22.50
2018-10-12T03:52:54.035Z,22.40
2018-10-12T03:55:22.210Z,22.30
2018-10-12T03:57:50.704Z,22.10
2018-10-12T04:00:19.039Z,22.20
2018-10-12T04:02:47.497Z,22.00
2018-10-12T04:05:15.607Z,21.90
2018-10-12T04:07:43.768Z,22.00
2018-10-12T04:10:11.959Z,21.90
2018-10-12T04:12:40.574Z,21.90
2018-10-12T04:15:08.900Z,21.60
2018-10-12T04:17:37.023Z,21.70
2018-10-12T04:20:05.282Z,21.70
2018-10-12T04:22:33.400Z,21.70
2018-10-12T04:25:01.576Z,21.70
2018-10-12T04:27:29.701Z,22.00
2018-10-12T04:29:58.141Z,21.80
2018-10-12T04:32:26.369Z,22.10
2018-10-12T04:37:22.570Z,22.20
2018-10-12T04:40:31.113Z,21.80
2018-10-12T04:42:59.416Z,21.70
2018-10-12T04:45:27.648Z,21.80
2018-10-12T04:47:55.768Z,21.70
2018-10-12T04:50:23.904Z,21.90
2018-10-12T04:55:20.018Z,21.80
2018-10-12T04:57:48.158Z,21.80
2018-10-12T05:00:16.280Z,21.80
2018-10-12T05:02:44.399Z,21.60
2018-10-12T05:07:40.559Z,21.20
2018-10-12T05:10:08.636Z,21.40
2018-10-12T05:12:37.116Z,21.40
2018-10-12T05:15:05.395Z,21.30
2018-10-12T05:17:33.529Z,21.10
2018-10-12T05:20:01.756Z,20.90
2018-10-12T05:22:29.892Z,21.00
2018-10-12T05:24:58.019Z,20.90
2018-10-12T05:27:26.463Z,21.10
2018-10-12T05:29:54.604Z,21.20
2018-10-12T05:32:22.774Z,21.20
2018-10-12T05:34:50.886Z,21.20
2018-10-12T05:37:19.030Z,21.30
2018-10-12T05:39:47.216Z,21.60
2018-10-12T05:42:15.441Z,21.70
2018-10-12T05:44:43.556Z,21.60
2018-10-12T05:47:11.682Z,21.40
2018-10-12T05:50:04.017Z,21.40
2018-10-12T05:52:32.967Z,21.30
2018-10-12T05:55:01.726Z,21.20
2018-10-12T05:57:31.480Z,20.90
2018-10-12T06:00:00.761Z,20.80
2018-10-12T06:02:28.903Z,20.80
2018-10-12T06:04:57.008Z,20.90
2018-10-12T06:07:25.187Z,21.20
2018-10-12T06:09:53.416Z,20.70
2018-10-12T06:12:21.491Z,20.90
2018-10-12T06:14:49.638Z,21.40
2018-10-12T06:17:17.764Z,21.40
2018-10-12T06:19:46.127Z,21.40
2018-10-12T06:22:14.238Z,21.40
2018-10-12T06:24:42.545Z,21.40
2018-10-12T06:27:10.738Z,21.10
2018-10-12T06:29:38.883Z,21.00
2018-10-12T06:34:34.960Z,20.60
2018-10-12T06:37:03.104Z,20.60
2018-10-12T06:41:59.220Z,20.50
2018-10-12T06:44:27.345Z,20.90
2018-10-12T06:46:55.488Z,21.00
2018-10-12T06:49:23.659Z,21.20
2018-10-12T06:51:51.804Z,21.10
2018-10-12T06:54:19.911Z,21.20
2018-10-12T06:56:48.268Z,21.40
2018-10-12T06:59:16.684Z,21.20
2018-10-12T07:01:44.872Z,21.30
2018-10-12T07:04:13.001Z,21.00
2018-10-12T07:09:10.477Z,20.90
2018-10-12T07:11:38.924Z,20.70
2018-10-12T07:14:07.411Z,21.00
2018-10-12T07:16:35.184Z,21.10
2018-10-12T07:19:03.322Z,21.30
2018-10-12T07:21:31.457Z,21.60
2018-10-12T07:23:59.591Z,21.80
2018-10-12T07:26:27.826Z,21.80
2018-10-12T07:28:55.956Z,21.90
2018-10-12T07:31:24.309Z,21.70
2018-10-12T07:33:52.409Z,21.90
2018-10-12T07:36:20.547Z,22.00
2018-10-12T07:38:48.674Z,22.20
2018-10-12T07:41:17.112Z,22.30
2018-10-12T07:43:46.128Z,21.90
2018-10-12T07:46:14.277Z,22.00
2018-10-12T07:48:42.382Z,22.00
2018-10-12T07:51:10.493Z,22.30
2018-10-12T07:53:38.612Z,22.70
2018-10-12T07:56:07.537Z,23.10
2018-10-12T07:58:35.657Z,22.70
2018-10-12T08:01:03.806Z,22.90
2018-10-12T08:03:31.912Z,22.90
2018-10-12T08:06:00.919Z,23.10
2018-10-12T08:10:57.232Z,23.80
2018-10-12T08:13:25.679Z,23.90
2018-10-12T08:18:23.212Z,23.90
2018-10-12T08:20:51.374Z,24.40
2018-10-12T08:25:47.728Z,23.60
2018-10-12T08:28:15.900Z,24.10
2018-10-12T08:30:44.032Z,24.20
2018-10-12T08:33:12.169Z,24.50
2018-10-12T08:35:40.383Z,24.50
2018-10-12T08:38:08.840Z,25.20
2018-10-12T08:40:37.165Z,25.70
2018-10-12T08:43:05.471Z,26.00
2018-10-12T08:45:33.584Z,27.00
2018-10-12T08:48:01.711Z,28.10
2018-10-12T08:50:29.840Z,29.00
2018-10-12T08:52:58.075Z,30.10
2018-10-12T08:55:26.286Z,31.30
2018-10-12T08:57:54.341Z,30.80
2018-10-12T09:00:22.572Z,32.10
2018-10-12T09:02:50.837Z,32.90
2018-10-12T09:05:19.129Z,32.40
2018-10-12T09:07:47.634Z,32.70
2018-10-12T09:10:15.760Z,32.20
2018-10-12T09:12:43.895Z,33.40
2018-10-12T09:15:12.004Z,33.30
2018-10-12T09:17:40.144Z,32.70
2018-10-12T09:20:08.618Z,32.20
2018-10-12T09:22:37.107Z,32.50
2018-10-12T09:25:05.476Z,33.30
2018-10-12T09:27:33.621Z,34.40
2018-10-12T09:30:01.754Z,33.40
2018-10-12T09:32:29.867Z,32.80
2018-10-12T09:42:22.755Z,31.90
2018-10-12T09:44:51.536Z,33.20
2018-10-12T09:47:19.692Z,34.10
2018-10-12T09:49:47.827Z,33.70
2018-10-12T09:52:15.947Z,33.90
2018-10-12T09:54:44.083Z,34.30
2018-10-12T09:57:17.632Z,33.40
2018-10-12T09:59:45.787Z,33.40
2018-10-12T10:02:19.408Z,33.60
2018-10-12T10:04:47.480Z,32.90
2018-10-12T10:07:15.627Z,32.80
2018-10-12T10:09:43.736Z,32.50
2018-10-12T10:12:11.871Z,31.10
2018-10-12T10:14:40.107Z,31.30
2018-10-12T10:17:08.272Z,31.60
2018-10-12T10:19:36.404Z,30.80
2018-10-12T10:22:04.532Z,30.30
2018-10-12T10:24:32.679Z,29.60
2018-10-12T10:27:01.148Z,29.70
2018-10-12T10:29:29.296Z,29.70
2018-10-12T10:31:58.400Z,30.10
2018-10-12T10:34:26.568Z,29.80
2018-10-12T10:36:54.716Z,30.30
2018-10-12T10:39:22.848Z,31.40
2018-10-12T10:41:50.964Z,31.40
2018-10-12T10:46:47.007Z,32.10
2018-10-12T10:49:15.147Z,30.90
2018-10-12T10:51:43.480Z,29.70
2018-10-12T10:54:11.709Z,30.40
2018-10-12T10:56:40.104Z,31.70
2018-10-12T10:59:08.436Z,33.10
2018-10-12T11:01:36.558Z,32.40
2018-10-12T11:04:04.728Z,32.50
2018-10-12T11:06:32.870Z,32.20
2018-10-12T11:09:01.192Z,32.70
2018-10-12T11:13:57.236Z,34.00
2018-10-12T11:16:25.407Z,35.00
2018-10-12T11:18:53.740Z,35.10
2018-10-12T11:21:21.860Z,34.60
2018-10-12T11:26:17.963Z,35.90
2018-10-12T11:33:41.953Z,37.60
2018-10-12T11:36:10.138Z,37.10
2018-10-12T11:38:38.268Z,37.40
2018-10-12T11:41:06.953Z,37.60
2018-10-12T11:48:33.316Z,36.20
2018-10-12T11:53:29.701Z,35.90
2018-10-12T12:00:54.434Z,38.20
2018-10-12T12:03:22.670Z,38.00
2018-10-12T12:05:50.819Z,37.30
2018-10-12T12:08:19.059Z,35.50
2018-10-12T12:10:47.942Z,35.60
2018-10-12T12:13:16.052Z,36.40
2018-10-12T12:15:44.158Z,36.90
2018-10-12T12:18:12.297Z,36.70
2018-10-12T12:20:40.446Z,36.90
2018-10-12T12:23:08.572Z,36.50
2018-10-12T12:25:36.712Z,36.60
2018-10-12T12:28:04.864Z,36.20
2018-10-12T12:30:33.004Z,36.30
2018-10-12T12:33:01.392Z,36.90
2018-10-12T12:35:30.121Z,36.50
2018-10-12T12:37:57.859Z,36.30
2018-10-12T12:40:26.002Z,35.00
2018-10-12T12:42:54.231Z,34.30
2018-10-12T12:45:22.487Z,34.10
2018-10-12T12:47:50.659Z,34.30
2018-10-12T12:50:18.915Z,34.10
2018-10-12T12:52:47.495Z,34.40
2018-10-12T12:55:15.672Z,34.20
2018-10-12T12:57:43.785Z,34.40
2018-10-12T13:00:11.948Z,34.70
2018-10-12T13:02:40.125Z,34.40
2018-10-12T13:05:08.264Z,34.60
2018-10-12T13:07:36.481Z,34.20
2018-10-12T13:10:04.724Z,34.60
2018-10-12T13:12:32.892Z,34.80
2018-10-12T13:15:01.713Z,34.90
2018-10-12T13:17:30.168Z,35.20
2018-10-12T13:19:58.302Z,34.60
2018-10-12T13:22:26.436Z,34.30
2018-10-12T13:24:54.637Z,35.00
2018-10-12T13:27:23.127Z,34.30
2018-10-12T13:29:51.361Z,34.10
2018-10-12T13:32:19.669Z,34.20
2018-10-12T13:34:47.804Z,34.50
2018-10-12T13:37:15.951Z,33.30
2018-10-12T13:39:44.141Z,34.20
2018-10-12T13:42:12.231Z,35.00
2018-10-12T13:44:40.512Z,34.50
2018-10-12T13:47:08.648Z,34.50
2018-10-12T13:49:36.800Z,32.50
2018-10-12T13:52:05.240Z,32.30
2018-10-12T13:57:02.219Z,33.50
2018-10-12T14:11:53.380Z,32.60
2018-10-12T14:14:21.558Z,32.60
2018-10-12T14:16:49.696Z,32.40
2018-10-12T14:19:17.999Z,31.90
2018-10-12T14:21:45.956Z,31.90
2018-10-12T14:24:14.201Z,31.40
2018-10-12T14:26:42.345Z,31.10
2018-10-12T14:29:10.452Z,30.90
2018-10-12T14:31:38.953Z,30.70
2018-10-12T14:34:07.117Z,30.80
2018-10-12T14:36:35.246Z,30.40
2018-10-12T14:39:04.107Z,31.60
2018-10-12T14:41:32.596Z,30.50
2018-10-12T14:44:01.922Z,30.30
2018-10-12T14:46:29.958Z,29.90
2018-10-12T14:48:58.112Z,30.60
2018-10-12T14:51:26.238Z,30.70
2018-10-12T14:53:54.353Z,30.40
2018-10-12T14:56:22.545Z,30.20
2018-10-12T14:58:50.705Z,30.40
2018-10-12T15:01:18.800Z,30.50
2018-10-12T15:03:46.955Z,30.20
2018-10-12T15:06:15.517Z,30.00
2018-10-12T15:08:43.686Z,30.00
2018-10-12T15:11:11.875Z,30.00
2018-10-12T15:13:40.009Z,30.10
2018-10-12T15:16:08.144Z,29.70
2018-10-12T15:18:36.260Z,29.90
2018-10-12T15:21:04.441Z,30.00
2018-10-12T15:23:32.526Z,29.90
2018-10-12T15:26:02.411Z,30.40
2018-10-12T15:28:30.516Z,30.40
2018-10-12T15:30:58.659Z,30.50
2018-10-12T15:33:26.812Z,30.80
2018-10-12T15:35:55.017Z,30.70
2018-10-12T15:38:23.175Z,29.80
2018-10-12T15:40:51.335Z,29.50
2018-10-12T15:43:19.828Z,29.20
2018-10-12T15:45:48.064Z,29.20
2018-10-12T15:48:16.186Z,29.20
2018-10-12T15:50:44.299Z,29.10
2018-10-12T15:53:13.255Z,29.40
2018-10-12T15:55:41.910Z,29.60
2018-10-12T15:58:10.044Z,29.50
2018-10-12T16:00:38.263Z,29.70
2018-10-12T16:03:06.379Z,29.80
2018-10-12T16:05:34.493Z,29.60
2018-10-12T16:08:02.694Z,29.80
2018-10-12T16:10:31.442Z,29.60
2018-10-12T16:12:59.583Z,29.90
2018-10-12T16:15:27.717Z,30.10
2018-10-12T16:17:55.851Z,30.40
2018-10-12T16:20:24.156Z,30.30
2018-10-12T16:22:52.320Z,29.70
2018-10-12T16:26:01.552Z,29.60
2018-10-12T16:28:29.722Z,28.90
2018-10-12T16:33:26.076Z,28.90
2018-10-12T16:38:23.446Z,28.90
2018-10-12T16:40:51.628Z,28.90
2018-10-12T16:43:19.806Z,28.80
2018-10-12T16:48:17.143Z,29.00
2018-10-12T16:50:45.276Z,28.90
2018-10-12T16:53:13.943Z,28.90
2018-10-12T16:55:42.112Z,29.00
2018-10-12T16:58:11.553Z,29.00
2018-10-12T17:00:39.653Z,28.90
2018-10-12T17:03:08.117Z,28.90
2018-10-12T17:05:36.240Z,29.00
2018-10-12T17:08:04.565Z,29.10
2018-10-12T17:13:02.204Z,28.90
2018-10-12T17:15:30.449Z,29.00
2018-10-12T17:22:55.419Z,29.20
2018-10-12T17:25:23.699Z,29.00
2018-10-12T17:27:51.889Z,29.10
2018-10-12T17:30:20.146Z,28.90
2018-10-12T17:32:48.302Z,28.70
2018-10-12T17:35:16.745Z,28.80
2018-10-12T17:37:44.864Z,28.60
2018-10-12T17:40:13.261Z,28.60
2018-10-12T17:42:41.381Z,28.40
2018-10-12T17:45:10.239Z,28.40
2018-10-12T17:47:38.597Z,28.70
2018-10-12T17:50:07.033Z,28.60
2018-10-12T17:52:35.153Z,28.50
2018-10-12T17:55:03.550Z,28.20
2018-10-12T17:57:31.719Z,28.00
2018-10-12T17:59:59.875Z,27.60
2018-10-12T18:02:28.054Z,28.00
2018-10-12T18:04:56.351Z,28.10
2018-10-12T18:07:25.353Z,28.00
2018-10-12T18:09:53.589Z,27.70
2018-10-12T18:12:21.873Z,27.80
2018-10-12T18:14:49.986Z,27.50
2018-10-12T18:27:09.948Z,26.90
2018-10-12T18:29:38.188Z,26.40
2018-10-12T18:32:06.501Z,26.40
2018-10-12T18:34:34.919Z,26.70
2018-10-12T18:37:03.061Z,26.60
2018-10-12T18:49:23.068Z,26.60
2018-10-12T18:51:51.193Z,26.80
2018-10-12T18:54:19.320Z,26.70
2018-10-12T18:56:47.469Z,26.50
2018-10-12T18:59:15.964Z,26.50
2018-10-12T19:01:44.083Z,26.60
2018-10-12T19:04:12.307Z,26.40
2018-10-12T19:06:40.839Z,26.50
2018-10-12T19:09:09.983Z,26.30
2018-10-12T19:11:39.109Z,26.20
2018-10-12T19:14:07.266Z,26.30
2018-10-12T19:16:35.456Z,26.40
2018-10-12T19:19:03.788Z,26.50
2018-10-12T19:21:31.972Z,26.40
2018-10-12T19:24:00.109Z,26.40
2018-10-12T19:26:28.218Z,26.20
2018-10-12T19:28:56.349Z,26.50
2018-10-12T19:31:24.623Z,26.30
2018-10-12T19:33:52.768Z,26.20
2018-10-12T19:36:20.892Z,26.50
2018-10-12T19:38:49.018Z,26.60
2018-10-12T19:41:17.244Z,26.40
2018-10-12T19:43:45.453Z,25.90
2018-10-12T19:46:13.802Z,26.10
2018-10-12T19:51:09.844Z,26.40
2018-10-12T19:53:38.017Z,26.20
2018-10-12T19:58:34.559Z,25.80
2018-10-12T20:05:58.760Z,25.90
2018-10-12T20:20:46.541Z,25.20
2018-10-12T20:23:14.884Z,25.20
2018-10-12T20:25:43.356Z,25.30
2018-10-12T20:30:39.443Z,25.90
2018-10-12T20:33:07.716Z,25.90
2018-10-12T20:35:35.847Z,25.90
2018-10-12T20:45:27.726Z,25.70
2018-10-12T20:47:55.877Z,25.70
2018-10-12T20:55:19.957Z,25.20
2018-10-12T20:57:49.432Z,25.10
2018-10-12T21:00:18.766Z,25.40
2018-10-12T21:05:15.121Z,25.50
2018-10-12T21:07:44.007Z,25.60
2018-10-12T21:10:12.170Z,25.00
2018-10-12T21:12:40.291Z,25.00
2018-10-12T21:15:08.456Z,25.30
2018-10-12T21:17:36.725Z,25.60
2018-10-12T21:20:05.113Z,25.20
2018-10-12T21:22:33.568Z,25.10
2018-10-12T21:25:02.474Z,24.90
2018-10-12T21:27:30.945Z,25.00
2018-10-12T21:29:59.209Z,24.90
2018-10-12T21:32:27.339Z,24.90
2018-10-12T21:34:55.471Z,24.90
2018-10-12T21:37:23.574Z,24.90
2018-10-12T21:39:51.704Z,24.90
2018-10-12T21:42:20.232Z,24.90
2018-10-12T21:44:48.383Z,25.10
2018-10-12T21:47:16.526Z,25.00
2018-10-12T21:49:44.715Z,25.00
2018-10-12T21:52:12.847Z,25.20
2018-10-12T21:54:41.042Z,25.10
2018-10-12T21:57:09.198Z,25.00
2018-10-12T21:59:37.358Z,24.80
2018-10-12T22:02:05.489Z,24.90
2018-10-12T22:04:33.617Z,25.20
2018-10-12T22:07:02.575Z,25.20
2018-10-12T22:09:30.752Z,24.90
2018-10-12T22:11:58.955Z,24.70
2018-10-12T22:14:27.069Z,24.70
2018-10-12T22:16:55.183Z,24.60
2018-10-12T22:19:23.361Z,24.50
2018-10-12T22:21:51.501Z,24.70
2018-10-12T22:24:19.639Z,24.70
2018-10-12T22:26:47.771Z,24.60
2018-10-12T22:29:16.191Z,24.70
2018-10-12T22:31:44.326Z,24.90
2018-10-12T22:34:12.460Z,25.20
2018-10-12T22:36:40.755Z,24.90
2018-10-12T22:39:09.836Z,24.90
2018-10-12T22:41:38.064Z,24.60
2018-10-12T22:44:06.730Z,24.60
2018-10-12T22:46:34.887Z,24.40
2018-10-12T22:49:03.392Z,24.70
2018-10-12T22:51:31.520Z,24.50
2018-10-12T22:53:59.999Z,24.50
2018-10-12T22:56:28.196Z,24.30
2018-10-12T22:58:56.336Z,24.10
2018-10-12T23:01:24.468Z,24.10
2018-10-12T23:03:52.980Z,24.10
2018-10-12T23:06:21.116Z,24.20
2018-10-12T23:08:49.253Z,24.10
2018-10-12T23:11:17.402Z,24.10
2018-10-12T23:13:45.558Z,24.20
2018-10-12T23:16:13.670Z,24.40
2018-10-12T23:18:41.820Z,24.50
2018-10-12T23:21:09.962Z,24.20
2018-10-12T23:23:38.116Z,24.30
2018-10-12T23:26:07.522Z,24.30
2018-10-12T23:28:35.698Z,24.10
2018-10-12T23:31:03.836Z,24.00
2018-10-12T23:33:43.308Z,24.20
2018-10-12T23:36:11.468Z,24.30
2018-10-12T23:38:39.940Z,24.30
2018-10-12T23:41:08.156Z,24.10
2018-10-12T23:43:36.363Z,24.20
2018-10-12T23:46:04.511Z,24.30
2018-10-12T23:48:32.740Z,24.20
2018-10-12T23:51:00.896Z,24.50
2018-10-12T23:53:29.016Z,24.70
2018-10-12T23:55:57.155Z,24.50
2018-10-12T23:58:25.268Z,24.30
